Time;durP1;ratioP1;P1;durP2;ratioP2;P2;SDS_P1;SDS_P2;PMS_P1;PMS_P2;Temp;Humidity;BMP_temperature;BMP_pressure;BME280_temperature;BME280_humidity;BME280_pressure;Samples;Min_cycle;Max_cycle;Signal;HPM_P1;HPM_P2
2021/04/23 00:01:09;;;;;;;9.00;3.20;;;;;;;6.98;54.56;101388.53;5062449;28;20047;-67
2021/04/23 00:03:43;;;;;;;12.37;4.30;;;;;;;7.07;54.14;101390.53;5054792;28;20037;-67
2021/04/23 00:06:20;;;;;;;7.28;3.10;;;;;;;7.05;54.29;101391.59;5049509;28;20366;-67
2021/04/23 00:08:49;;;;;;;12.48;3.95;;;;;;;6.97;54.58;101382.44;5037187;28;20113;-67
2021/04/23 00:11:16;;;;;;;7.50;2.83;;;;;;;6.90;56.34;101385.63;5064702;28;20071;-67
2021/04/23 00:13:42;;;;;;;6.72;3.20;;;;;;;6.86;54.75;101384.97;5063538;28;20067;-67
2021/04/23 00:16:10;;;;;;;10.32;3.70;;;;;;;6.95;54.69;101389.59;5065059;28;20032;-67
2021/04/23 00:18:36;;;;;;;9.43;3.20;;;;;;;6.88;55.80;101387.50;5065943;28;20051;-67
2021/04/23 00:21:03;;;;;;;11.13;3.75;;;;;;;6.89;54.49;101390.03;5054456;28;20083;-67
2021/04/23 00:23:28;;;;;;;5.70;3.20;;;;;;;6.88;54.60;101377.81;5063147;28;20097;-67
2021/04/23 00:25:54;;;;;;;7.72;3.38;;;;;;;6.81;54.97;101380.03;5060933;28;20063;-67
2021/04/23 00:28:19;;;;;;;10.27;3.85;;;;;;;6.91;54.37;101385.53;5060505;28;20032;-67
2021/04/23 00:30:49;;;;;;;9.15;3.42;;;;;;;6.91;54.29;101385.53;5051699;28;20029;-67
2021/04/23 00:33:16;;;;;;;9.32;3.15;;;;;;;6.86;54.52;101387.59;5067786;28;20033;-68
2021/04/23 00:35:44;;;;;;;7.95;3.08;;;;;;;6.83;54.76;101393.09;5062028;28;20037;-67
2021/04/23 00:38:15;;;;;;;8.23;3.40;;;;;;;6.77;54.96;101390.91;5051167;28;20037;-67
2021/04/23 00:41:06;;;;;;;8.20;2.90;;;;;;;6.68;55.04;101389.72;5056080;28;20060;-67
2021/04/23 00:43:35;;;;;;;;;;;;;;;6.62;55.54;101387.50;5052408;28;20033;-67
2021/04/23 00:46:01;;;;;;;8.23;3.45;;;;;;;6.64;55.42;101384.78;5053941;28;19943;-67
2021/04/23 00:48:30;;;;;;;12.15;3.33;;;;;;;6.67;55.14;101392.44;5065541;28;20044;-67
2021/04/23 00:51:12;;;;;;;8.15;3.25;;;;;;;6.81;54.67;101387.09;5046887;28;20036;-67
2021/04/23 00:53:41;;;;;;;9.63;4.50;;;;;;;6.88;54.29;101384.88;5056659;28;20064;-67
2021/04/23 00:56:10;;;;;;;7.70;3.38;;;;;;;6.93;53.91;101388.03;5060719;28;20036;-68
2021/04/23 00:58:35;;;;;;;8.52;3.50;;;;;;;7.01;53.66;101386.56;5060680;28;20127;-67
2021/04/23 01:01:09;;;;;;;9.05;3.75;;;;;;;7.01;53.71;101383.91;5055644;28;20111;-67
2021/04/23 01:03:35;;;;;;;8.75;3.78;;;;;;;6.96;53.83;101379.91;5056840;28;20037;-67
2021/04/23 01:06:22;;;;;;;11.82;3.42;;;;;;;6.92;53.97;101389.00;5051197;28;20130;-67
2021/04/23 01:08:48;;;;;;;8.43;3.00;;;;;;;6.79;54.38;101388.97;5061446;28;20094;-67
2021/04/23 01:11:16;;;;;;;7.93;3.08;;;;;;;6.70;55.44;101387.84;5068757;28;20062;-67
2021/04/23 01:13:41;;;;;;;7.70;2.58;;;;;;;6.66;55.67;101393.41;5056515;28;20037;-67
2021/04/23 01:16:10;;;;;;;8.57;3.28;;;;;;;6.57;56.24;101392.25;5062055;28;20036;-68
2021/04/23 01:18:37;;;;;;;7.00;2.67;;;;;;;6.52;55.81;101392.56;5057086;28;20076;-67
2021/04/23 01:21:12;;;;;;;7.20;3.47;;;;;;;6.50;56.21;101394.44;5050922;28;20390;-67
2021/04/23 01:23:41;;;;;;;7.30;2.70;;;;;;;6.42;56.63;101396.75;5057690;28;20048;-67
2021/04/23 01:26:08;;;;;;;8.82;3.25;;;;;;;6.32;56.22;101408.84;5059997;28;20020;-67
2021/04/23 01:28:34;;;;;;;6.70;2.70;;;;;;;6.25;56.83;101404.94;5057002;28;20029;-67
2021/04/23 01:31:03;;;;;;;7.72;3.03;;;;;;;6.29;56.14;101399.38;5053502;28;20086;-67
2021/04/23 01:33:29;;;;;;;8.02;2.83;;;;;;;6.21;57.75;101398.19;5061634;28;20123;-67
2021/04/23 01:35:54;;;;;;;6.80;2.88;;;;;;;6.14;58.13;101409.09;5054299;28;20580;-67
2021/04/23 01:38:21;;;;;;;7.10;3.25;;;;;;;6.07;58.16;101399.09;5065082;28;20025;-67
2021/04/23 01:40:47;;;;;;;6.00;2.72;;;;;;;5.99;59.15;101402.25;5051017;28;20061;-67
2021/04/23 01:43:13;;;;;;;6.10;2.85;;;;;;;5.92;59.06;101408.81;5050285;28;20033;-67
2021/04/23 01:45:39;;;;;;;8.38;3.08;;;;;;;5.77;60.62;101408.03;5050340;28;20061;-67
2021/04/23 01:48:05;;;;;;;6.80;3.08;;;;;;;5.57;62.28;101406.66;5055818;28;20025;-68
2021/04/23 01:50:31;;;;;;;7.05;3.50;;;;;;;5.44;65.12;101409.22;5051729;28;20039;-67
2021/04/23 01:52:56;;;;;;;11.05;3.50;;;;;;;5.43;61.21;101410.16;5060149;28;20547;-67
2021/04/23 01:55:23;;;;;;;5.25;2.53;;;;;;;5.42;61.71;101408.47;5050420;28;20033;-67
2021/04/23 01:57:49;;;;;;;5.32;2.92;;;;;;;5.31;62.66;101413.53;5051372;28;20124;-67
2021/04/23 02:00:23;;;;;;;10.32;3.80;;;;;;;5.24;61.41;101414.88;5057939;28;20029;-67
2021/04/23 02:02:53;;;;;;;12.93;2.83;;;;;;;5.29;61.16;101411.03;5054384;28;20049;-67
2021/04/23 02:05:21;;;;;;;11.07;3.85;;;;;;;5.46;59.60;101417.00;5059348;28;20033;-67
2021/04/23 02:07:47;;;;;;;9.07;3.20;;;;;;;5.38;61.66;101414.00;5050798;28;20041;-68
2021/04/23 02:10:19;;;;;;;8.48;3.05;;;;;;;5.22;62.81;101417.59;5049978;28;20037;-68
2021/04/23 02:12:46;;;;;;;6.63;3.17;;;;;;;5.14;63.38;101421.63;5066586;28;20040;-67
2021/04/23 02:15:14;;;;;;;6.07;2.95;;;;;;;5.11;64.51;101420.03;5061131;28;20508;-68
2021/04/23 02:17:40;;;;;;;7.43;3.35;;;;;;;5.15;62.92;101418.91;5053694;28;20075;-67
2021/04/23 02:20:10;;;;;;;6.13;3.15;;;;;;;5.06;65.05;101420.31;5052722;28;20056;-68
2021/04/23 02:22:35;;;;;;;7.10;3.20;;;;;;;5.01;63.45;101422.38;5064382;28;20044;-67
2021/04/23 02:25:01;;;;;;;6.57;3.60;;;;;;;4.94;66.49;101430.72;5068253;28;20555;-67
2021/04/23 02:27:26;;;;;;;6.70;3.13;;;;;;;4.83;65.76;101433.97;5066978;28;20036;-67
2021/04/23 02:29:52;;;;;;;4.82;2.80;;;;;;;4.76;68.07;101437.91;5056347;28;20512;-68
2021/04/23 02:32:18;;;;;;;9.02;3.60;;;;;;;4.65;65.20;101436.78;5050633;28;20060;-67
2021/04/23 02:34:43;;;;;;;5.47;2.92;;;;;;;4.62;66.07;101441.34;5050125;28;20040;-68
2021/04/23 02:37:08;;;;;;;9.07;3.28;;;;;;;4.59;64.11;101438.91;5065485;28;20033;-67
2021/04/23 02:39:34;;;;;;;6.07;2.90;;;;;;;4.57;64.61;101435.53;5063678;28;20597;-67
2021/04/23 02:41:59;;;;;;;6.13;3.22;;;;;;;4.71;63.00;101443.41;5050190;28;20037;-67
2021/04/23 02:44:25;;;;;;;9.77;4.15;;;;;;;4.92;61.69;101435.22;5050100;28;20120;-67
2021/04/23 02:46:52;;;;;;;12.98;3.75;;;;;;;4.89;62.65;101439.69;5057922;28;20040;-67
2021/04/23 02:49:17;;;;;;;10.52;3.15;;;;;;;4.79;65.88;101443.81;5058360;28;20056;-68
2021/04/23 02:51:45;;;;;;;10.90;3.70;;;;;;;4.74;62.50;101445.00;5066080;28;20052;-67
2021/04/23 02:54:11;;;;;;;9.68;3.45;;;;;;;4.78;64.71;101447.34;5067774;28;20129;-67
2021/04/23 02:56:37;;;;;;;7.35;2.97;;;;;;;4.80;63.50;101449.88;5055209;28;20312;-68
2021/04/23 02:59:05;;;;;;;8.20;3.25;;;;;;;4.85;62.18;101447.84;5057146;28;20041;-67
2021/04/23 03:01:36;;;;;;;7.40;3.20;;;;;;;4.81;64.46;101451.56;5049722;28;20090;-67
2021/04/23 03:04:02;;;;;;;;;;;;;;;4.76;64.32;101453.63;5049536;28;20109;-68
2021/04/23 03:06:27;;;;;;;6.50;3.22;;;;;;;4.69;67.46;101463.63;5049998;28;19939;-67
2021/04/23 03:08:53;;;;;;;6.53;3.45;;;;;;;4.58;66.70;101464.25;5057763;28;20033;-67
2021/04/23 03:11:24;;;;;;;6.53;3.70;;;;;;;4.49;65.35;101466.56;5050134;28;20524;-67
2021/04/23 03:13:52;;;;;;;10.52;3.58;;;;;;;4.49;65.66;101467.41;5050519;28;20179;-66
2021/04/23 03:16:18;;;;;;;7.80;2.97;;;;;;;4.54;64.85;101459.28;5063103;28;20029;-66
2021/04/23 03:18:45;;;;;;;7.57;3.33;;;;;;;4.55;64.62;101460.97;5055879;28;20044;-67
2021/04/23 03:21:11;;;;;;;10.18;4.22;;;;;;;4.70;62.65;101467.94;5061986;28;20527;-66
2021/04/23 03:23:37;;;;;;;7.40;3.75;;;;;;;4.72;62.45;101458.22;5057082;28;20131;-66
2021/04/23 03:26:05;;;;;;;6.50;3.00;;;;;;;4.70;67.06;101462.69;5064090;28;20187;-66
2021/04/23 03:28:32;;;;;;;6.10;2.85;;;;;;;4.72;62.91;101473.94;5058087;28;20070;-67
2021/04/23 03:30:57;;;;;;;6.60;3.00;;;;;;;4.66;63.00;101469.03;5050041;28;20488;-66
2021/04/23 03:33:24;;;;;;;6.07;2.67;;;;;;;4.67;62.45;101468.09;5060195;28;20097;-66
2021/04/23 03:35:53;;;;;;;6.60;2.90;;;;;;;4.63;61.97;101474.47;5053451;28;20036;-67
2021/04/23 03:38:20;;;;;;;5.03;3.08;;;;;;;4.55;64.26;101464.41;5057780;28;20078;-67
2021/04/23 03:40:48;;;;;;;6.85;2.92;;;;;;;4.51;62.55;101467.34;5060220;28;20031;-67
2021/04/23 03:43:13;;;;;;;4.43;2.60;;;;;;;4.42;64.42;101468.69;5065118;28;20516;-67
2021/04/23 03:45:39;;;;;;;8.00;3.00;;;;;;;4.44;63.86;101477.31;5039016;28;20098;-67
2021/04/23 03:48:06;;;;;;;6.00;2.67;;;;;;;4.45;65.16;101477.22;5056809;28;20043;-67
2021/04/23 03:50:34;;;;;;;7.82;3.80;;;;;;;4.50;62.54;101468.25;5062202;28;20438;-67
2021/04/23 03:53:03;;;;;;;7.15;3.72;;;;;;;4.43;64.53;101481.72;5055797;28;20090;-67
2021/04/23 03:55:32;;;;;;;7.07;3.35;;;;;;;4.30;65.96;101479.88;5053505;28;20037;-67
2021/04/23 03:58:00;;;;;;;11.48;3.80;;;;;;;4.25;65.91;101482.78;5055746;28;20033;-68
2021/04/23 04:00:38;;;;;;;6.35;3.20;;;;;;;4.14;67.53;101478.13;5052446;28;20037;-66
2021/04/23 04:03:05;;;;;;;7.97;4.05;;;;;;;4.03;67.11;101480.53;5052616;28;20041;-66
2021/04/23 04:05:30;;;;;;;7.70;3.42;;;;;;;3.94;68.81;101481.03;5053314;28;20455;-66
2021/04/23 04:07:56;;;;;;;6.25;3.38;;;;;;;3.87;69.10;101477.06;5053851;28;20120;-67
2021/04/23 04:10:22;;;;;;;7.15;4.38;;;;;;;3.74;67.92;101487.34;5052564;28;20113;-66
2021/04/23 04:12:48;;;;;;;7.43;3.53;;;;;;;3.67;67.47;101483.38;5060861;23;20568;-68
2021/04/23 04:15:14;;;;;;;9.15;3.65;;;;;;;3.65;69.38;101485.22;5048913;28;20037;-69
2021/04/23 04:17:40;;;;;;;7.55;4.30;;;;;;;3.55;69.20;101483.16;5051426;28;20029;-68
2021/04/23 04:20:08;;;;;;;6.72;3.42;;;;;;;3.58;69.97;101489.97;5031687;28;20047;-67
2021/04/23 04:22:33;;;;;;;10.32;4.82;;;;;;;3.73;66.51;101488.28;5051664;28;20041;-67
2021/04/23 04:24:59;;;;;;;7.25;4.00;;;;;;;3.81;65.65;101491.31;5042822;28;20030;-68
2021/04/23 04:27:24;;;;;;;10.27;4.13;;;;;;;3.87;65.32;101498.00;5050381;28;20048;-68
2021/04/23 04:29:50;;;;;;;6.05;3.65;;;;;;;3.90;65.28;101503.91;5050446;28;20108;-67
2021/04/23 04:32:16;;;;;;;10.30;4.45;;;;;;;3.99;64.57;101498.16;5051223;28;20033;-67
2021/04/23 04:34:45;;;;;;;7.13;2.85;;;;;;;3.95;65.31;101508.88;5043582;28;20048;-67
2021/04/23 04:37:11;;;;;;;7.20;3.67;;;;;;;3.90;65.50;101508.28;5051096;28;20547;-67
2021/04/23 04:39:37;;;;;;;10.52;3.55;;;;;;;3.95;65.67;101514.13;5044562;28;20033;-69
2021/04/23 04:42:03;;;;;;;9.40;3.80;;;;;;;4.03;64.35;101515.38;5045686;28;20043;-67
2021/04/23 04:44:29;;;;;;;8.90;3.60;;;;;;;3.99;64.91;101526.94;5051235;28;20033;-68
2021/04/23 04:46:56;;;;;;;6.45;3.40;;;;;;;3.98;64.55;101520.03;5049748;28;20116;-68
2021/04/23 04:49:21;;;;;;;7.35;2.92;;;;;;;3.95;65.44;101522.78;5051685;28;20112;-67
2021/04/23 04:51:47;;;;;;;7.53;3.88;;;;;;;3.96;64.76;101526.28;5046292;28;20113;-68
2021/04/23 04:54:12;;;;;;;9.02;3.40;;;;;;;3.94;65.67;101525.53;5049660;28;20057;-68
2021/04/23 04:56:37;;;;;;;7.10;3.83;;;;;;;3.89;69.24;101532.78;5043754;28;20312;-67
2021/04/23 04:59:03;;;;;;;8.45;3.25;;;;;;;3.92;66.40;101535.22;5049263;28;20102;-67
2021/04/23 05:01:28;;;;;;;10.10;3.80;;;;;;;4.06;64.75;101543.16;5051576;28;20570;-68
2021/04/23 05:03:53;;;;;;;12.57;4.35;;;;;;;3.99;65.10;101540.03;5047428;28;20033;-69
2021/04/23 05:06:19;;;;;;;9.80;4.40;;;;;;;4.01;66.21;101556.50;5051171;28;20090;-67
2021/04/23 05:08:45;;;;;;;9.48;4.10;;;;;;;4.12;64.61;101553.28;5032244;28;20116;-68
2021/04/23 05:11:11;;;;;;;12.50;4.32;;;;;;;4.14;64.48;101550.59;5052609;28;20091;-68
2021/04/23 05:13:36;;;;;;;7.32;3.47;;;;;;;4.18;65.28;101557.34;5047700;28;20041;-67
2021/04/23 05:16:02;;;;;;;7.45;4.10;;;;;;;4.33;64.97;101555.63;5049714;28;20029;-68
2021/04/23 05:18:27;;;;;;;7.28;3.85;;;;;;;4.50;64.36;101554.69;5040452;28;20502;-68
2021/04/23 05:20:53;;;;;;;11.65;4.43;;;;;;;4.70;64.03;101559.63;5051575;28;20056;-69
2021/04/23 05:23:18;;;;;;;9.00;4.90;;;;;;;4.84;64.09;101566.69;5044344;28;20420;-67
2021/04/23 05:25:43;;;;;;;10.32;5.22;;;;;;;5.13;63.67;101570.22;5045865;28;20087;-68
2021/04/23 05:28:09;;;;;;;9.50;4.43;;;;;;;5.33;63.28;101575.09;5048562;28;20524;-67
2021/04/23 05:30:37;;;;;;;7.68;3.65;;;;;;;5.52;62.81;101572.22;5050202;28;20079;-68
2021/04/23 05:33:05;;;;;;;6.72;4.20;;;;;;;5.69;62.95;101575.59;5042104;28;20488;-68
2021/04/23 05:35:31;;;;;;;10.63;4.30;;;;;;;6.03;62.16;101571.75;5029885;28;20108;-67
2021/04/23 05:37:58;;;;;;;8.23;3.42;;;;;;;6.36;60.08;101571.41;5046093;28;20094;-68
2021/04/23 05:40:33;;;;;;;8.23;4.75;;;;;;;6.80;59.77;101574.69;5043322;28;20565;-67
2021/04/23 05:42:59;;;;;;;10.68;3.92;;;;;;;7.10;58.68;101578.84;5049750;28;20122;-68
2021/04/23 05:45:25;;;;;;;9.57;3.70;;;;;;;7.28;56.74;101580.22;5044025;28;20106;-70
2021/04/23 05:47:52;;;;;;;7.65;3.55;;;;;;;7.57;57.20;101577.38;5043787;28;20048;-67
2021/04/23 05:50:18;;;;;;;7.38;3.45;;;;;;;7.96;55.60;101580.78;5046596;28;20079;-67
2021/04/23 05:52:45;;;;;;;11.20;4.35;;;;;;;8.57;53.63;101581.66;5029745;28;20501;-67
2021/04/23 05:55:12;;;;;;;9.40;4.07;;;;;;;9.03;52.16;101578.22;5050255;28;20559;-67
2021/04/23 05:57:38;;;;;;;8.73;3.42;;;;;;;8.98;51.99;101583.03;5045858;28;20087;-67
2021/04/23 06:00:06;;;;;;;7.53;3.30;;;;;;;9.27;51.11;101590.53;5041658;28;20060;-68
2021/04/23 06:02:31;;;;;;;9.15;3.20;;;;;;;9.63;50.19;101593.94;5041852;28;20040;-69
2021/04/23 06:04:57;;;;;;;8.25;3.40;;;;;;;10.03;49.72;101596.09;5045722;28;20041;-68
2021/04/23 06:07:22;;;;;;;8.40;3.63;;;;;;;10.11;48.72;101601.63;5032547;28;20040;-68
2021/04/23 06:09:47;;;;;;;6.55;3.13;;;;;;;10.29;48.37;101597.50;5043163;28;20092;-68
2021/04/23 06:12:12;;;;;;;6.95;3.25;;;;;;;10.49;48.06;101601.19;5043980;28;20047;-68
2021/04/23 06:14:38;;;;;;;6.25;3.30;;;;;;;11.02;48.88;101597.72;5026212;28;20048;-68
2021/04/23 06:17:05;;;;;;;6.93;3.10;;;;;;;11.30;46.19;101598.03;5049016;28;20029;-67
2021/04/23 06:19:33;;;;;;;7.43;3.20;;;;;;;11.71;46.39;101605.09;5048119;28;20028;-68
2021/04/23 06:22:00;;;;;;;7.13;3.05;;;;;;;11.93;47.58;101597.97;5029930;28;20037;-67
2021/04/23 06:24:25;;;;;;;8.00;2.55;;;;;;;12.25;46.23;101597.75;5043573;28;20533;-68
2021/04/23 06:26:51;;;;;;;7.32;3.80;;;;;;;12.56;45.68;101602.97;5048231;28;20112;-68
2021/04/23 06:29:16;;;;;;;6.88;2.95;;;;;;;12.47;45.04;101599.38;5036166;28;20358;-67
2021/04/23 06:31:42;;;;;;;6.50;2.78;;;;;;;13.02;46.45;101606.78;5024733;28;20039;-68
2021/04/23 06:34:07;;;;;;;6.45;3.17;;;;;;;13.34;45.15;101604.63;5041487;28;20087;-68
2021/04/23 06:36:32;;;;;;;9.35;2.88;;;;;;;13.74;44.58;101608.84;5043442;28;20435;-68
2021/04/23 06:38:58;;;;;;;5.85;2.72;;;;;;;14.02;42.91;101614.19;5041887;28;20502;-68
2021/04/23 06:41:23;;;;;;;5.05;2.88;;;;;;;14.12;40.61;101606.16;5042816;28;20033;-67
2021/04/23 06:43:49;;;;;;;5.63;2.78;;;;;;;14.34;41.04;101616.38;5043774;28;20077;-69
2021/04/23 06:46:14;;;;;;;5.40;2.47;;;;;;;14.66;41.43;101620.44;5038526;28;20320;-68
2021/04/23 06:48:40;;;;;;;8.10;4.18;;;;;;;14.63;40.11;101620.72;5046154;28;20116;-68
2021/04/23 06:51:05;;;;;;;9.00;3.78;;;;;;;14.06;42.38;101615.56;5046782;28;20041;-69
2021/04/23 06:53:32;;;;;;;6.32;2.60;;;;;;;14.41;43.16;101627.28;5048900;28;20025;-68
2021/04/23 06:56:01;;;;;;;6.55;2.90;;;;;;;14.72;41.89;101625.13;5022206;28;20083;-68
2021/04/23 06:58:26;;;;;;;7.07;3.58;;;;;;;14.78;40.26;101621.88;5041597;28;20460;-68
2021/04/23 07:00:52;;;;;;;4.60;2.70;;;;;;;14.96;39.87;101632.50;5039854;28;20069;-68
2021/04/23 07:03:17;;;;;;;7.60;3.28;;;;;;;15.14;39.13;101626.34;5041210;28;20029;-68
2021/04/23 07:05:44;;;;;;;6.15;3.10;;;;;;;15.19;39.00;101626.69;5043048;28;20041;-67
2021/04/23 07:08:10;;;;;;;6.03;3.00;;;;;;;15.13;39.63;101622.81;5040231;28;20034;-68
2021/04/23 07:10:36;;;;;;;5.35;3.35;;;;;;;14.94;39.84;101621.16;5042228;28;20044;-68
2021/04/23 07:13:02;;;;;;;8.00;3.90;;;;;;;15.29;38.49;101628.25;5036108;28;20441;-70
2021/04/23 07:15:31;;;;;;;7.07;3.40;;;;;;;14.86;39.29;101621.94;5046151;28;20078;-68
2021/04/23 07:17:56;;;;;;;9.77;3.88;;;;;;;14.99;38.76;101618.88;5042013;28;20041;-69
2021/04/23 07:20:23;;;;;;;11.02;4.15;;;;;;;14.69;39.70;101620.13;5045742;28;20420;-68
2021/04/23 07:22:52;;;;;;;11.52;4.07;;;;;;;15.43;39.46;101624.19;5048841;28;20167;-70
2021/04/23 07:25:19;;;;;;;6.45;3.40;;;;;;;15.81;37.97;101626.63;5045712;28;20033;-69
2021/04/23 07:27:45;;;;;;;8.88;4.07;;;;;;;16.33;36.21;101621.16;5043357;28;20036;-68
2021/04/23 07:30:16;;;;;;;7.50;3.58;;;;;;;16.35;35.74;101617.31;5041568;28;20041;-70
2021/04/23 07:32:41;;;;;;;;;;;;;;;16.52;35.36;101617.34;5045739;28;20509;-68
2021/04/23 07:35:09;;;;;;;7.50;3.42;;;;;;;16.91;34.85;101620.25;5043160;28;20011;-69
2021/04/23 07:37:36;;;;;;;7.22;3.47;;;;;;;16.70;36.02;101612.69;5028210;28;20048;-68
2021/04/23 07:40:05;;;;;;;6.82;3.10;;;;;;;16.53;35.88;101616.34;5035849;28;20065;-69
2021/04/23 07:42:31;;;;;;;4.72;2.80;;;;;;;17.14;36.26;101617.75;5041502;28;20044;-68
2021/04/23 07:44:56;;;;;;;6.78;3.58;;;;;;;17.25;35.67;101613.88;5040359;28;20037;-69
2021/04/23 07:47:23;;;;;;;6.50;3.13;;;;;;;17.78;35.16;101611.59;5045248;28;20037;-68
2021/04/23 07:49:49;;;;;;;5.43;2.90;;;;;;;18.86;34.83;101614.38;5046516;28;20041;-69
2021/04/23 07:52:14;;;;;;;4.85;2.53;;;;;;;19.27;32.84;101614.03;5038435;28;20030;-69
2021/04/23 07:54:40;;;;;;;5.00;2.60;;;;;;;19.38;30.67;101609.22;5042742;28;20374;-68
2021/04/23 07:57:10;;;;;;;8.55;2.88;;;;;;;19.25;31.99;101618.72;5024299;28;20040;-68
2021/04/23 07:59:37;;;;;;;6.43;3.20;;;;;;;19.42;30.28;101616.72;5021027;28;20065;-69
2021/04/23 08:02:04;;;;;;;6.47;3.20;;;;;;;19.45;31.38;101623.56;5037723;28;20397;-69
2021/04/23 08:04:30;;;;;;;6.07;2.60;;;;;;;20.54;30.28;101616.50;5044345;28;20108;-68
2021/04/23 08:06:55;;;;;;;6.75;2.90;;;;;;;20.43;29.79;101617.03;5047786;28;20125;-69
2021/04/23 08:09:20;;;;;;;6.68;2.90;;;;;;;19.86;28.36;101615.09;5048755;28;20056;-66
2021/04/23 08:11:46;;;;;;;8.07;3.00;;;;;;;20.50;27.97;101614.44;5032086;28;20203;-69
2021/04/23 08:14:11;;;;;;;7.60;3.63;;;;;;;20.54;29.57;101615.69;5043891;28;20103;-69
2021/04/23 08:16:36;;;;;;;5.18;2.88;;;;;;;19.86;28.88;101615.09;5045574;28;20453;-68
2021/04/23 08:19:02;;;;;;;7.57;3.17;;;;;;;20.02;28.57;101614.91;5045615;28;20116;-69
2021/04/23 08:21:28;;;;;;;7.43;3.45;;;;;;;20.42;28.85;101623.41;5043199;28;20029;-66
2021/04/23 08:23:53;;;;;;;8.57;3.58;;;;;;;20.59;27.33;101607.91;5050056;28;20034;-70
2021/04/23 08:26:18;;;;;;;5.45;2.60;;;;;;;21.00;26.97;101613.47;5047807;28;20049;-69
2021/04/23 08:28:44;;;;;;;6.63;3.65;;;;;;;20.55;27.19;101603.94;5031685;28;20119;-70
2021/04/23 08:31:10;;;;;;;6.05;3.13;;;;;;;19.82;29.45;101608.44;5046626;28;20040;-69
2021/04/23 08:33:35;;;;;;;5.90;2.80;;;;;;;20.13;29.25;101610.91;5044257;28;20045;-69
2021/04/23 08:36:01;;;;;;;6.03;3.33;;;;;;;20.26;27.91;101607.53;5049696;28;20061;-67
2021/04/23 08:38:26;;;;;;;5.85;3.38;;;;;;;20.09;29.34;101606.91;5045007;28;20052;-69
2021/04/23 08:40:53;;;;;;;7.30;4.30;;;;;;;21.27;26.07;101605.59;5050709;28;20034;-69
2021/04/23 08:43:19;;;;;;;6.10;2.85;;;;;;;21.42;25.87;101603.66;5045437;28;20029;-68
2021/04/23 08:45:44;;;;;;;6.68;3.30;;;;;;;21.89;26.77;101603.91;5051798;28;20060;-69
2021/04/23 08:48:10;;;;;;;10.75;3.92;;;;;;;21.93;25.61;101604.34;5033417;28;20099;-69
2021/04/23 08:50:36;;;;;;;5.78;3.00;;;;;;;21.60;25.29;101594.25;5053428;28;20037;-66
2021/04/23 08:53:02;;;;;;;11.15;4.65;;;;;;;21.81;25.18;101607.63;5049142;28;20045;-70
2021/04/23 08:55:27;;;;;;;9.02;4.30;;;;;;;21.35;26.07;101605.44;5052367;28;20362;-67
2021/04/23 08:57:53;;;;;;;6.72;3.45;;;;;;;21.53;25.42;101604.97;5047496;28;20033;-70
2021/04/23 09:00:19;;;;;;;6.70;3.38;;;;;;;22.17;26.30;101603.81;5051627;28;20040;-69
2021/04/23 09:02:45;;;;;;;6.15;3.75;;;;;;;22.08;24.54;101614.97;5043386;28;20041;-69
2021/04/23 09:05:12;;;;;;;8.00;3.85;;;;;;;21.80;24.84;101613.19;5049691;28;20044;-69
2021/04/23 09:07:38;;;;;;;4.82;3.10;;;;;;;21.23;26.06;101616.94;5044709;28;20044;-69
2021/04/23 09:10:14;;;;;;;6.57;3.03;;;;;;;21.92;25.53;101608.06;5045000;28;20041;-69
2021/04/23 09:12:41;;;;;;;6.35;3.00;;;;;;;22.50;24.85;101611.22;5045536;28;20037;-67
2021/04/23 09:15:22;;;;;;;4.70;3.10;;;;;;;22.01;25.12;101599.63;5051246;28;20041;-67
2021/04/23 09:18:04;;;;;;;7.40;4.10;;;;;;;21.56;25.92;101603.75;5043117;28;20029;-67
2021/04/23 09:20:29;;;;;;;7.50;4.10;;;;;;;20.61;27.10;101608.56;5049125;28;20161;-69
2021/04/23 09:23:06;;;;;;;7.53;4.35;;;;;;;19.69;27.85;101603.75;5042267;28;20076;-66
2021/04/23 09:25:58;;;;;;;7.50;3.67;;;;;;;19.25;30.21;101599.97;5050176;28;20033;-70
2021/04/23 09:28:38;;;;;;;7.90;3.97;;;;;;;19.16;28.98;101608.28;5039168;28;20045;-69
2021/04/23 09:31:26;;;;;;;10.88;4.85;;;;;;;17.96;30.43;101600.69;5040791;28;20034;-69
2021/04/23 09:34:00;;;;;;;7.45;3.88;;;;;;;18.37;30.91;101605.81;5047994;28;20182;-66
2021/04/23 09:36:36;;;;;;;5.15;3.30;;;;;;;18.37;31.30;101598.63;5039489;28;20037;-69
2021/04/23 09:39:13;;;;;;;6.80;3.47;;;;;;;18.22;31.46;101600.41;5046929;28;20510;-69
2021/04/23 09:41:41;;;;;;;5.32;3.15;;;;;;;18.23;32.35;101599.38;5045776;28;20037;-70
2021/04/23 09:44:28;;;;;;;5.93;3.25;;;;;;;17.84;30.17;101589.53;5027585;28;20036;-72
2021/04/23 09:46:59;;;;;;;8.05;3.60;;;;;;;18.33;30.85;101589.28;5044946;28;20408;-70
2021/04/23 09:49:25;;;;;;;9.30;4.18;;;;;;;18.01;31.28;101590.28;5031543;28;20582;-69
2021/04/23 09:51:50;;;;;;;6.10;3.78;;;;;;;17.80;32.76;101585.50;5044526;28;20354;-69
2021/04/23 09:54:20;;;;;;;8.40;4.70;;;;;;;17.82;31.75;101584.34;5047950;28;20025;-69
2021/04/23 09:56:46;;;;;;;9.55;4.63;;;;;;;17.85;30.41;101580.50;5051607;28;20094;-69
2021/04/23 09:59:18;;;;;;;6.65;3.60;;;;;;;17.53;32.03;101574.22;5050811;28;20513;-69
2021/04/23 10:01:50;;;;;;;10.20;4.90;;;;;;;17.35;31.59;101581.63;5047642;28;20040;-71
2021/04/23 10:04:20;;;;;;;8.88;4.68;;;;;;;16.26;34.83;101582.75;5044249;28;20175;-70
2021/04/23 10:06:46;;;;;;;6.47;3.95;;;;;;;16.33;33.59;101573.94;5047142;28;20048;-70
2021/04/23 10:09:11;;;;;;;6.07;4.25;;;;;;;16.65;33.23;101569.63;5047675;28;20045;-69
2021/04/23 10:11:42;;;;;;;7.10;3.70;;;;;;;16.13;34.88;101568.03;5048365;28;20351;-69
2021/04/23 10:14:10;;;;;;;7.00;4.13;;;;;;;16.65;34.66;101569.63;5047240;28;20397;-68
2021/04/23 10:16:37;;;;;;;7.88;4.75;;;;;;;16.30;33.22;101568.94;5045274;28;20440;-69
2021/04/23 10:19:02;;;;;;;9.70;5.28;;;;;;;16.12;35.29;101573.56;5047285;28;20128;-67
2021/04/23 10:21:29;;;;;;;10.60;4.32;;;;;;;16.39;35.44;101572.44;5044195;28;20545;-68
2021/04/23 10:23:54;;;;;;;8.02;4.03;;;;;;;16.60;34.99;101579.16;5050509;28;20501;-68
2021/04/23 10:26:20;;;;;;;7.90;4.45;;;;;;;16.58;35.55;101573.97;5027198;28;20033;-68
2021/04/23 10:28:46;;;;;;;9.10;5.18;;;;;;;16.69;33.22;101575.47;5041597;28;20048;-68
2021/04/23 10:31:12;;;;;;;9.27;5.03;;;;;;;16.40;34.12;101563.44;5047608;28;20398;-68
2021/04/23 10:33:38;;;;;;;7.20;4.40;;;;;;;16.26;34.19;101559.56;5041760;28;20056;-68
2021/04/23 10:36:03;;;;;;;9.90;5.13;;;;;;;15.78;38.77;101569.09;5043741;28;20094;-69
2021/04/23 10:38:38;;;;;;;10.95;5.45;;;;;;;15.86;35.05;101571.78;5041945;28;20060;-68
2021/04/23 10:41:10;;;;;;;6.75;4.60;;;;;;;15.64;35.25;101562.50;5042803;28;20390;-69
2021/04/23 10:43:49;;;;;;;7.32;4.28;;;;;;;15.86;36.94;101562.97;5045642;28;20149;-68
2021/04/23 10:46:16;;;;;;;8.25;4.18;;;;;;;16.10;34.77;101554.19;5035787;28;20119;-69
2021/04/23 10:48:44;;;;;;;10.50;5.35;;;;;;;16.00;34.58;101570.34;5042213;28;20041;-68
2021/04/23 10:51:18;;;;;;;8.93;4.38;;;;;;;15.89;35.42;101562.63;5045837;28;20483;-68
2021/04/23 10:53:47;;;;;;;7.85;4.28;;;;;;;16.01;36.43;101560.50;5044143;28;20172;-68
2021/04/23 10:56:20;;;;;;;10.85;4.75;;;;;;;15.78;35.41;101554.91;5045241;28;20033;-68
2021/04/23 10:58:46;;;;;;;8.90;4.53;;;;;;;15.85;34.88;101551.47;5042794;28;20091;-68
2021/04/23 11:01:15;;;;;;;8.77;5.13;;;;;;;15.86;34.29;101554.97;5048067;28;20025;-68
2021/04/23 11:03:45;;;;;;;7.68;4.03;;;;;;;15.74;37.02;101550.91;5044783;28;20112;-68
2021/04/23 11:06:13;;;;;;;8.90;4.68;;;;;;;15.86;35.52;101550.44;5039267;28;20052;-69
2021/04/23 11:08:58;;;;;;;6.50;4.07;;;;;;;15.97;35.87;101553.81;5045686;28;20044;-68
2021/04/23 11:11:25;;;;;;;8.98;3.95;;;;;;;16.04;36.25;101549.50;5034124;28;20060;-68
2021/04/23 11:13:52;;;;;;;8.48;4.53;;;;;;;16.15;34.48;101549.19;5040089;28;20041;-68
2021/04/23 11:16:22;;;;;;;7.63;4.20;;;;;;;16.33;35.80;101543.75;5037887;28;20029;-68
2021/04/23 11:18:53;;;;;;;9.25;5.13;;;;;;;16.16;33.49;101544.69;5042288;28;20232;-68
2021/04/23 11:21:31;;;;;;;6.85;4.22;;;;;;;16.37;34.11;101541.56;5041846;28;20099;-68
2021/04/23 11:24:05;;;;;;;8.90;4.40;;;;;;;16.32;34.00;101537.53;5045887;28;20098;-68
2021/04/23 11:26:57;;;;;;;8.68;4.50;;;;;;;16.44;33.94;101545.25;5041306;28;20525;-69
2021/04/23 11:29:28;;;;;;;7.65;3.95;;;;;;;16.35;33.75;101536.38;5047755;28;20128;-68
2021/04/23 11:32:17;;;;;;;8.63;4.30;;;;;;;16.49;33.90;101530.41;5048952;28;20128;-68